createdAt,value
2019-02-09T00:00:44.379Z,4.40
2019-02-09T00:01:44.628Z,7.90
2019-02-09T00:02:44.242Z,4.90
2019-02-09T00:03:44.340Z,5.80
2019-02-09T00:04:44.189Z,5.20
2019-02-09T00:05:44.195Z,6.70
2019-02-09T00:06:44.368Z,8.50
2019-02-09T00:07:44.620Z,5.80
2019-02-09T00:08:44.272Z,4.20
2019-02-09T00:09:44.241Z,5.60
2019-02-09T00:10:44.263Z,4.70
2019-02-09T00:11:44.324Z,4.20
2019-02-09T00:12:44.303Z,5.90
2019-02-09T00:13:44.239Z,4.50
2019-02-09T00:14:44.315Z,4.10
2019-02-09T00:15:44.510Z,8.20
2019-02-09T00:16:44.329Z,6.40
2019-02-09T00:17:44.037Z,6.20
2019-02-09T00:18:44.021Z,3.70
2019-02-09T00:19:43.991Z,6.40
2019-02-09T00:20:43.977Z,7.50
2019-02-09T00:21:44.000Z,5.80
2019-02-09T00:22:43.936Z,5.90
2019-02-09T00:23:44.056Z,4.00
2019-02-09T00:24:43.969Z,5.70
2019-02-09T00:25:43.982Z,6.20
2019-02-09T00:26:43.886Z,5.50
2019-02-09T00:27:43.862Z,4.80
2019-02-09T00:28:43.918Z,5.60
2019-02-09T00:29:46.319Z,4.50
2019-02-09T00:30:43.890Z,6.00
2019-02-09T00:31:43.853Z,4.90
2019-02-09T00:32:43.902Z,5.80
2019-02-09T00:33:43.918Z,4.40
2019-02-09T00:34:43.825Z,3.70
2019-02-09T00:35:43.799Z,3.70
2019-02-09T00:36:43.809Z,4.50
2019-02-09T00:37:43.854Z,5.50
2019-02-09T00:38:43.810Z,3.70
2019-02-09T00:39:43.738Z,6.70
2019-02-09T00:40:43.725Z,5.70
2019-02-09T00:41:43.751Z,3.20
2019-02-09T00:42:43.791Z,5.80
2019-02-09T00:43:43.723Z,4.90
2019-02-09T00:44:43.729Z,5.20
2019-02-09T00:45:43.770Z,6.60
2019-02-09T00:46:44.255Z,4.30
2019-02-09T00:47:44.211Z,5.30
2019-02-09T00:48:44.538Z,4.40
2019-02-09T00:49:44.128Z,5.70
2019-02-09T00:50:45.695Z,3.90
2019-02-09T00:52:04.815Z,3.80
2019-02-09T00:52:45.462Z,7.90
2019-02-09T00:53:44.034Z,4.60
2019-02-09T00:54:43.697Z,2.70
2019-02-09T00:55:43.765Z,3.70
2019-02-09T00:56:43.586Z,7.60
2019-02-09T00:57:43.841Z,4.40
2019-02-09T00:58:44.348Z,5.40
2019-02-09T00:59:43.844Z,3.90
2019-02-09T01:00:43.830Z,5.80
2019-02-09T01:01:44.208Z,5.50
2019-02-09T01:02:44.552Z,4.70
2019-02-09T01:03:44.143Z,3.20
2019-02-09T01:04:43.955Z,5.30
2019-02-09T01:05:44.241Z,6.70
2019-02-09T01:06:44.455Z,3.50
2019-02-09T01:07:43.470Z,4.90
2019-02-09T01:08:43.491Z,3.40
2019-02-09T01:09:43.426Z,5.60
2019-02-09T01:10:43.404Z,4.70
2019-02-09T01:11:43.389Z,2.40
2019-02-09T01:12:43.387Z,2.90
2019-02-09T01:13:43.427Z,4.00
2019-02-09T01:14:43.356Z,3.00
2019-02-09T01:15:43.399Z,4.50
2019-02-09T01:16:43.358Z,5.20
2019-02-09T01:17:43.328Z,2.70
2019-02-09T01:18:43.345Z,5.80
2019-02-09T01:19:43.303Z,3.40
2019-02-09T01:20:43.304Z,3.80
2019-02-09T01:21:43.293Z,3.60
2019-02-09T01:22:43.340Z,3.00
2019-02-09T01:23:43.276Z,3.10
2019-02-09T01:24:43.257Z,3.30
2019-02-09T01:25:43.255Z,3.50
2019-02-09T01:26:43.230Z,2.10
2019-02-09T01:27:43.213Z,1.90
2019-02-09T01:28:43.236Z,1.80
2019-02-09T01:29:43.202Z,3.00
2019-02-09T01:30:43.194Z,2.70
2019-02-09T01:31:43.172Z,3.10
2019-02-09T01:32:43.165Z,2.00
2019-02-09T01:33:43.175Z,3.40
2019-02-09T01:34:43.144Z,1.70
2019-02-09T01:35:43.145Z,1.90
2019-02-09T01:36:43.119Z,3.70
2019-02-09T01:37:43.104Z,2.60
2019-02-09T01:38:43.142Z,3.40
2019-02-09T01:39:43.103Z,2.80
2019-02-09T01:40:43.080Z,2.60
2019-02-09T01:41:43.066Z,2.60
2019-02-09T01:42:43.059Z,4.80
2019-02-09T01:43:43.051Z,2.50
2019-02-09T01:44:43.056Z,2.00
2019-02-09T01:45:43.022Z,3.20
2019-02-09T01:46:43.063Z,1.60
2019-02-09T01:47:43.001Z,2.20
2019-02-09T01:48:43.027Z,3.10
2019-02-09T01:49:43.006Z,3.20
2019-02-09T01:50:42.981Z,3.40
2019-02-09T01:51:42.955Z,3.20
2019-02-09T01:52:42.943Z,1.70
2019-02-09T01:53:42.987Z,2.40
2019-02-09T01:54:42.972Z,1.70
2019-02-09T01:55:42.924Z,5.40
2019-02-09T01:56:42.921Z,3.00
2019-02-09T01:57:42.894Z,2.30
2019-02-09T01:58:42.879Z,1.70
2019-02-09T01:59:42.902Z,3.70
2019-02-09T02:00:42.862Z,3.00
2019-02-09T02:01:42.846Z,2.60
2019-02-09T02:02:42.842Z,2.00
2019-02-09T02:03:42.846Z,4.20
2019-02-09T02:04:42.817Z,1.30
2019-02-09T02:05:42.822Z,2.70
2019-02-09T02:06:42.793Z,3.20
2019-02-09T02:07:42.809Z,1.70
2019-02-09T02:08:42.782Z,2.20
2019-02-09T02:09:42.757Z,1.20
2019-02-09T02:10:42.772Z,2.30
2019-02-09T02:11:42.812Z,4.70
2019-02-09T02:12:42.728Z,2.90
2019-02-09T02:13:42.733Z,3.60
2019-02-09T02:14:42.713Z,2.00
2019-02-09T02:15:42.712Z,2.80
2019-02-09T02:16:42.693Z,2.70
2019-02-09T02:17:42.699Z,3.10
2019-02-09T02:18:42.671Z,2.70
2019-02-09T02:19:42.665Z,2.30
2019-02-09T02:20:42.662Z,1.50
2019-02-09T02:21:42.621Z,2.90
2019-02-09T02:22:42.619Z,1.70
2019-02-09T02:23:42.604Z,1.90
2019-02-09T02:24:42.602Z,3.00
2019-02-09T02:25:42.649Z,3.20
2019-02-09T02:26:42.604Z,1.80
2019-02-09T02:27:42.558Z,3.10
2019-02-09T02:28:42.550Z,2.90
2019-02-09T02:29:42.537Z,1.90
2019-02-09T02:30:42.571Z,6.00
2019-02-09T02:31:42.541Z,4.70
2019-02-09T02:32:42.523Z,2.40
2019-02-09T02:33:42.496Z,1.90
2019-02-09T02:34:42.482Z,1.60
2019-02-09T02:35:42.515Z,3.30
2019-02-09T02:36:42.467Z,2.40
2019-02-09T02:37:42.455Z,2.20
2019-02-09T02:38:42.470Z,2.10
2019-02-09T02:39:42.436Z,1.60
2019-02-09T02:40:42.473Z,2.40
2019-02-09T02:41:42.400Z,2.30
2019-02-09T02:42:42.488Z,2.90
2019-02-09T02:43:42.388Z,2.90
2019-02-09T02:44:42.438Z,3.00
2019-02-09T02:45:42.372Z,2.10
2019-02-09T02:46:42.376Z,1.80
2019-02-09T02:47:42.338Z,2.70
2019-02-09T02:48:42.361Z,3.20
2019-02-09T02:49:42.325Z,2.00
2019-02-09T02:50:42.330Z,1.70
2019-02-09T02:51:42.342Z,1.80
2019-02-09T02:52:42.288Z,1.60
2019-02-09T02:53:42.295Z,1.80
2019-02-09T02:54:42.282Z,3.60
2019-02-09T02:55:42.259Z,2.00
2019-02-09T02:56:42.308Z,3.90
2019-02-09T02:57:42.256Z,2.80
2019-02-09T02:58:42.226Z,1.20
2019-02-09T02:59:42.270Z,4.10
2019-02-09T03:00:42.216Z,3.00
2019-02-09T03:01:42.208Z,1.70
2019-02-09T03:02:42.188Z,2.40
2019-02-09T03:03:42.223Z,3.30
2019-02-09T03:04:42.166Z,2.10
2019-02-09T03:05:42.141Z,1.00
2019-02-09T03:06:42.158Z,1.40
2019-02-09T03:07:42.199Z,2.30
2019-02-09T03:08:42.117Z,2.30
2019-02-09T03:09:42.106Z,1.10
2019-02-09T03:10:42.092Z,4.70
2019-02-09T03:11:42.139Z,3.00
2019-02-09T03:12:42.070Z,1.20
2019-02-09T03:13:42.087Z,1.90
2019-02-09T03:14:42.094Z,1.60
2019-02-09T03:15:42.048Z,2.00
2019-02-09T03:16:42.056Z,1.90
2019-02-09T03:17:42.033Z,1.30
2019-02-09T03:18:42.001Z,2.50
2019-02-09T03:19:42.027Z,1.80
2019-02-09T03:20:41.987Z,3.50
2019-02-09T03:21:41.990Z,2.40
2019-02-09T03:22:41.983Z,1.90
2019-02-09T03:23:42.041Z,1.60
2019-02-09T03:24:41.940Z,3.50
2019-02-09T03:25:41.940Z,2.80
2019-02-09T03:26:41.921Z,3.50
2019-02-09T03:27:43.524Z,3.20
2019-02-09T03:28:42.003Z,1.90
2019-02-09T03:29:41.888Z,5.30
2019-02-09T03:30:48.033Z,3.20
2019-02-09T03:31:42.889Z,2.40
2019-02-09T03:32:41.903Z,7.20
2019-02-09T03:33:41.844Z,4.30
2019-02-09T03:34:41.842Z,4.70
2019-02-09T03:35:41.834Z,3.90
2019-02-09T03:36:41.811Z,5.70
2019-02-09T03:37:41.900Z,4.30
2019-02-09T03:38:41.795Z,2.40
2019-02-09T03:39:41.781Z,3.30
2019-02-09T03:40:41.777Z,5.20
2019-02-09T03:41:41.782Z,4.10
2019-02-09T03:42:41.779Z,2.30
2019-02-09T03:43:41.748Z,3.60
2019-02-09T03:44:41.804Z,2.60
2019-02-09T03:45:41.731Z,2.70
2019-02-09T03:46:41.723Z,3.30
2019-02-09T03:47:41.703Z,1.80
2019-02-09T03:48:42.075Z,3.90
2019-02-09T03:49:41.670Z,4.50
2019-02-09T03:50:41.713Z,3.50
2019-02-09T03:51:41.648Z,1.50
2019-02-09T03:52:41.640Z,1.80
2019-02-09T03:53:41.645Z,2.10
2019-02-09T03:54:41.614Z,6.90
2019-02-09T03:55:41.606Z,2.70
2019-02-09T03:56:41.621Z,3.10
2019-02-09T03:57:41.592Z,4.40
2019-02-09T03:58:41.599Z,3.80
2019-02-09T03:59:41.570Z,4.60
2019-02-09T04:00:41.556Z,5.10
2019-02-09T04:01:41.565Z,5.10
2019-02-09T04:02:41.552Z,4.20
2019-02-09T04:03:41.583Z,3.60
2019-02-09T04:04:41.525Z,5.20
2019-02-09T04:05:41.500Z,3.70
2019-02-09T04:06:41.506Z,3.30
2019-02-09T04:07:41.480Z,4.20
2019-02-09T04:08:41.466Z,4.50
2019-02-09T04:09:41.474Z,7.10
2019-02-09T04:10:41.444Z,4.80
2019-02-09T04:11:41.465Z,2.80
2019-02-09T04:12:41.424Z,5.60
2019-02-09T04:13:41.411Z,6.00
2019-02-09T04:14:41.424Z,4.90
2019-02-09T04:15:41.445Z,6.60
2019-02-09T04:16:41.384Z,6.40
2019-02-09T04:17:41.374Z,7.20
2019-02-09T04:18:41.366Z,5.70
2019-02-09T04:19:42.033Z,7.10
2019-02-09T04:20:41.353Z,8.70
2019-02-09T04:21:41.322Z,3.80
2019-02-09T04:22:41.316Z,9.10
2019-02-09T04:23:41.295Z,9.40
2019-02-09T04:24:41.337Z,7.10
2019-02-09T04:25:41.283Z,5.50
2019-02-09T04:26:41.271Z,5.60
2019-02-09T04:27:41.265Z,9.00
2019-02-09T04:28:41.254Z,4.10
2019-02-09T04:29:41.237Z,2.90
2019-02-09T04:30:41.241Z,3.90
2019-02-09T04:31:41.250Z,5.50
2019-02-09T04:32:41.197Z,5.70
2019-02-09T04:33:41.193Z,6.20
2019-02-09T04:34:41.178Z,7.20
2019-02-09T04:35:41.212Z,4.60
2019-02-09T04:36:41.158Z,5.70
2019-02-09T04:37:41.146Z,5.80
2019-02-09T04:38:41.154Z,5.40
2019-02-09T04:39:41.133Z,5.20
2019-02-09T04:40:41.150Z,4.50
2019-02-09T04:41:41.112Z,6.40
2019-02-09T04:42:41.093Z,5.10
2019-02-09T04:43:41.091Z,3.10
2019-02-09T04:44:41.076Z,3.50
2019-02-09T04:45:41.080Z,4.00
2019-02-09T04:46:41.059Z,6.90
2019-02-09T04:47:41.039Z,5.20
2019-02-09T04:48:41.028Z,2.80
2019-02-09T04:49:41.015Z,4.60
2019-02-09T04:50:41.052Z,5.50
2019-02-09T04:51:40.995Z,3.60
2019-02-09T04:52:40.984Z,3.00
2019-02-09T04:53:40.988Z,7.10
2019-02-09T04:54:40.965Z,3.50
2019-02-09T04:55:40.973Z,4.10
2019-02-09T04:56:40.941Z,5.60
2019-02-09T04:57:40.941Z,8.00
2019-02-09T04:58:40.921Z,7.10
2019-02-09T04:59:40.919Z,9.30
2019-02-09T05:00:40.916Z,4.90
2019-02-09T05:01:40.883Z,5.60
2019-02-09T05:02:40.917Z,7.60
2019-02-09T05:03:40.896Z,5.60
2019-02-09T05:04:40.852Z,6.50
2019-02-09T05:05:40.917Z,7.40
2019-02-09T05:06:40.828Z,4.80
2019-02-09T05:07:40.819Z,4.30
2019-02-09T05:08:40.816Z,6.80
2019-02-09T05:09:40.832Z,6.50
2019-02-09T05:10:40.812Z,4.40
2019-02-09T05:11:40.791Z,8.30
2019-02-09T05:12:40.761Z,4.60
2019-02-09T05:13:40.744Z,6.70
2019-02-09T05:14:40.754Z,4.30
2019-02-09T05:15:40.729Z,6.00
2019-02-09T05:16:58.468Z,6.20
2019-02-09T05:18:06.661Z,6.70
2019-02-09T12:54:14.599Z,6.10
2019-02-09T12:55:14.496Z,12.90
2019-02-09T12:56:14.619Z,12.50
2019-02-09T12:57:14.995Z,11.30
2019-02-09T12:58:17.161Z,14.40
2019-02-09T12:59:15.442Z,11.20
2019-02-09T13:00:14.456Z,11.70
2019-02-09T13:01:18.929Z,14.40
2019-02-09T13:02:58.087Z,12.40
2019-02-09T13:03:19.734Z,11.40
2019-02-09T13:04:30.507Z,8.70
2019-02-09T13:05:37.705Z,12.60
2019-02-09T13:15:50.423Z,10.60
2019-02-09T14:53:24.412Z,9.20
2019-02-09T14:54:22.833Z,11.00
2019-02-09T14:55:23.426Z,11.70
2019-02-09T14:56:23.916Z,9.70
2019-02-09T14:57:23.818Z,10.70
2019-02-09T14:58:24.616Z,13.00
2019-02-09T14:59:23.099Z,16.40
2019-02-09T15:00:23.865Z,14.20
2019-02-09T15:01:23.294Z,11.30
2019-02-09T15:02:25.178Z,14.60
2019-02-09T15:03:26.938Z,10.30
2019-02-09T15:04:24.488Z,11.10
2019-02-09T15:05:23.875Z,12.30
2019-02-09T15:06:24.024Z,12.90
2019-02-09T15:07:22.793Z,12.00
2019-02-09T15:09:25.474Z,11.50
2019-02-09T15:10:23.447Z,13.60
2019-02-09T15:11:23.296Z,9.60
2019-02-09T15:12:24.001Z,12.60
2019-02-09T15:13:23.879Z,12.20
2019-02-09T15:14:26.167Z,12.50
2019-02-09T15:15:23.362Z,15.40
2019-02-09T15:16:22.584Z,9.70
2019-02-09T15:17:33.777Z,11.90
2019-02-09T15:18:23.851Z,8.70
2019-02-09T15:20:25.371Z,9.60
2019-02-09T15:21:23.555Z,11.90
2019-02-09T15:22:24.075Z,8.70
2019-02-09T15:23:22.928Z,9.20
2019-02-09T15:24:23.506Z,10.50
2019-02-09T15:25:26.450Z,10.50
2019-02-09T15:26:22.448Z,14.20
2019-02-09T15:27:23.328Z,8.50
2019-02-09T15:28:23.848Z,12.10
2019-02-09T15:31:38.469Z,8.30
2019-02-09T15:32:29.733Z,12.60
2019-02-09T15:33:36.034Z,11.60
2019-02-09T15:34:32.784Z,12.10
2019-02-09T15:36:08.777Z,11.40
2019-02-09T15:37:35.668Z,10.80
2019-02-09T16:48:59.652Z,11.30
2019-02-09T16:49:30.815Z,9.50
2019-02-09T16:50:41.054Z,14.60
2019-02-09T16:51:25.133Z,10.60
2019-02-09T16:52:31.479Z,11.80
2019-02-09T16:53:39.661Z,7.00
2019-02-09T16:54:31.784Z,8.50
2019-02-09T16:55:37.209Z,11.50
2019-02-09T16:56:25.466Z,7.70
2019-02-09T16:57:31.576Z,10.70
2019-02-09T16:58:28.639Z,7.60
2019-02-09T23:01:27.781Z,9.00
2019-02-09T23:02:27.627Z,13.30
2019-02-09T23:03:27.474Z,13.80
2019-02-09T23:04:27.276Z,22.00
2019-02-09T23:05:27.293Z,13.40
2019-02-09T23:06:27.248Z,15.50
2019-02-09T23:07:27.229Z,16.00
2019-02-09T23:08:27.348Z,14.70
2019-02-09T23:09:27.184Z,12.00
2019-02-09T23:10:27.226Z,11.90
2019-02-09T23:11:28.138Z,12.80
2019-02-09T23:12:28.138Z,17.60
2019-02-09T23:13:27.219Z,14.30
2019-02-09T23:14:27.133Z,15.90
2019-02-09T23:15:27.133Z,16.10
2019-02-09T23:16:27.157Z,13.10
2019-02-09T23:17:27.164Z,15.80
2019-02-09T23:18:27.085Z,16.10
2019-02-09T23:19:27.146Z,14.70
2019-02-09T23:20:27.134Z,9.00
2019-02-09T23:21:33.617Z,14.60
2019-02-09T23:22:27.054Z,15.90
2019-02-09T23:23:27.043Z,9.90
2019-02-09T23:24:27.025Z,14.50
2019-02-09T23:25:27.044Z,13.40
2019-02-09T23:26:27.003Z,13.90
2019-02-09T23:27:27.137Z,10.90
2019-02-09T23:28:28.318Z,11.80
2019-02-09T23:29:26.978Z,14.80
2019-02-09T23:30:26.971Z,16.20
2019-02-09T23:31:27.037Z,16.70
2019-02-09T23:32:27.035Z,14.10
2019-02-09T23:33:27.170Z,16.00
2019-02-09T23:34:26.930Z,17.50
2019-02-09T23:35:26.906Z,12.10
2019-02-09T23:36:26.900Z,15.80
2019-02-09T23:37:29.575Z,12.80
2019-02-09T23:38:26.921Z,16.60
2019-02-09T23:39:26.945Z,14.90
2019-02-09T23:40:26.899Z,15.80
2019-02-09T23:41:26.912Z,11.40
2019-02-09T23:42:30.007Z,15.80
2019-02-09T23:43:30.413Z,16.40
2019-02-09T23:44:26.941Z,15.50
2019-02-09T23:45:26.880Z,10.70
2019-02-09T23:46:26.841Z,14.10
2019-02-09T23:47:26.910Z,14.40
2019-02-09T23:48:27.191Z,13.50
2019-02-09T23:49:26.837Z,16.10
2019-02-09T23:50:26.779Z,9.20
2019-02-09T23:51:26.802Z,13.50
2019-02-09T23:52:26.807Z,17.90
2019-02-09T23:53:26.862Z,10.20
2019-02-09T23:54:26.758Z,10.20
2019-02-09T23:55:30.751Z,14.40
2019-02-09T23:56:26.714Z,20.20
2019-02-09T23:57:26.693Z,12.80
2019-02-09T23:58:26.776Z,16.30
2019-02-09T23:59:27.654Z,17.00
